sensor_id;sensor_type;location;lat;lon;timestamp;temperature;humidity
11140;DHT22;5624;49.388;11.350;2022-10-16T00:00:44;14.40;99.90
11140;DHT22;5624;49.388;11.350;2022-10-16T00:03:10;14.40;99.90
11140;DHT22;5624;49.388;11.350;2022-10-16T00:05:41;14.40;99.90
11140;DHT22;5624;49.388;11.350;2022-10-16T00:08:08;14.40;99.90
11140;DHT22;5624;49.388;11.350;2022-10-16T00:10:35;14.40;99.90
11140;DHT22;5624;49.388;11.350;2022-10-16T00:13:01;14.40;99.90
11140;DHT22;5624;49.388;11.350;2022-10-16T00:15:26;14.40;99.90
11140;DHT22;5624;49.388;11.350;2022-10-16T00:17:52;14.40;99.90
11140;DHT22;5624;49.388;11.350;2022-10-16T00:20:18;14.40;99.80
11140;DHT22;5624;49.388;11.350;2022-10-16T00:22:43;14.40;99.70
11140;DHT22;5624;49.388;11.350;2022-10-16T00:25:09;14.40;99.90
11140;DHT22;5624;49.388;11.350;2022-10-16T00:27:34;14.30;99.90
11140;DHT22;5624;49.388;11.350;2022-10-16T00:30:00;14.40;99.90
11140;DHT22;5624;49.388;11.350;2022-10-16T00:32:26;14.40;99.90
11140;DHT22;5624;49.388;11.350;2022-10-16T00:34:51;14.40;99.80
11140;DHT22;5624;49.388;11.350;2022-10-16T00:37:20;14.40;99.80
11140;DHT22;5624;49.388;11.350;2022-10-16T00:39:46;14.30;99.90
11140;DHT22;5624;49.388;11.350;2022-10-16T00:42:18;14.20;99.90
11140;DHT22;5624;49.388;11.350;2022-10-16T00:44:55;14.20;99.90
11140;DHT22;5624;49.388;11.350;2022-10-16T00:47:35;14.20;99.90
11140;DHT22;5624;49.388;11.350;2022-10-16T00:50:08;14.10;99.90
11140;DHT22;5624;49.388;11.350;2022-10-16T00:52:35;14.20;99.90
11140;DHT22;5624;49.388;11.350;2022-10-16T00:55:03;14.20;99.90
11140;DHT22;5624;49.388;11.350;2022-10-16T00:57:29;14.20;99.90
11140;DHT22;5624;49.388;11.350;2022-10-16T00:59:56;14.20;99.90
11140;DHT22;5624;49.388;11.350;2022-10-16T01:02:22;14.20;99.90
11140;DHT22;5624;49.388;11.350;2022-10-16T01:04:50;14.20;99.90
11140;DHT22;5624;49.388;11.350;2022-10-16T01:07:30;14.20;99.90
11140;DHT22;5624;49.388;11.350;2022-10-16T01:10:06;14.20;99.90
11140;DHT22;5624;49.388;11.350;2022-10-16T01:12:46;14.20;99.90
11140;DHT22;5624;49.388;11.350;2022-10-16T01:31:18;14.00;99.90
11140;DHT22;5624;49.388;11.350;2022-10-16T01:33:54;14.00;99.90
11140;DHT22;5624;49.388;11.350;2022-10-16T01:36:25;14.10;99.90
11140;DHT22;5624;49.388;11.350;2022-10-16T01:38:54;14.10;99.90
11140;DHT22;5624;49.388;11.350;2022-10-16T01:41:29;14.10;99.90
11140;DHT22;5624;49.388;11.350;2022-10-16T01:44:08;14.10;99.90
11140;DHT22;5624;49.388;11.350;2022-10-16T01:46:39;14.10;99.90
11140;DHT22;5624;49.388;11.350;2022-10-16T01:49:06;14.10;99.90
11140;DHT22;5624;49.388;11.350;2022-10-16T01:51:35;14.10;99.90
11140;DHT22;5624;49.388;11.350;2022-10-16T01:54:01;14.10;99.90
11140;DHT22;5624;49.388;11.350;2022-10-16T01:56:27;14.10;99.90
11140;DHT22;5624;49.388;11.350;2022-10-16T01:59:20;14.00;99.90
11140;DHT22;5624;49.388;11.350;2022-10-16T02:01:50;14.00;99.90
11140;DHT22;5624;49.388;11.350;2022-10-16T02:04:22;14.10;99.90
11140;DHT22;5624;49.388;11.350;2022-10-16T02:06:49;14.10;99.90
11140;DHT22;5624;49.388;11.350;2022-10-16T02:09:15;14.00;99.90
11140;DHT22;5624;49.388;11.350;2022-10-16T02:11:43;14.10;99.90
11140;DHT22;5624;49.388;11.350;2022-10-16T02:14:09;14.10;99.90
11140;DHT22;5624;49.388;11.350;2022-10-16T02:19:00;14.10;99.90
11140;DHT22;5624;49.388;11.350;2022-10-16T02:21:29;14.10;99.90
11140;DHT22;5624;49.388;11.350;2022-10-16T02:24:11;14.10;99.90
11140;DHT22;5624;49.388;11.350;2022-10-16T02:26:52;14.10;99.90
11140;DHT22;5624;49.388;11.350;2022-10-16T02:29:25;14.10;99.90
11140;DHT22;5624;49.388;11.350;2022-10-16T02:31:55;14.10;99.90
11140;DHT22;5624;49.388;11.350;2022-10-16T02:34:24;14.10;99.90
11140;DHT22;5624;49.388;11.350;2022-10-16T02:36:52;14.10;99.90
11140;DHT22;5624;49.388;11.350;2022-10-16T02:39:19;14.10;99.90
11140;DHT22;5624;49.388;11.350;2022-10-16T02:41:46;14.10;99.90
11140;DHT22;5624;49.388;11.350;2022-10-16T02:44:11;14.30;99.90
11140;DHT22;5624;49.388;11.350;2022-10-16T02:46:37;14.20;99.90
11140;DHT22;5624;49.388;11.350;2022-10-16T02:49:02;14.30;99.90
11140;DHT22;5624;49.388;11.350;2022-10-16T02:51:28;14.30;99.90
11140;DHT22;5624;49.388;11.350;2022-10-16T02:53:54;14.30;99.90
11140;DHT22;5624;49.388;11.350;2022-10-16T02:56:20;14.20;99.90
11140;DHT22;5624;49.388;11.350;2022-10-16T02:58:45;14.20;99.90
11140;DHT22;5624;49.388;11.350;2022-10-16T03:01:11;14.30;99.90
11140;DHT22;5624;49.388;11.350;2022-10-16T03:03:38;14.20;99.90
11140;DHT22;5624;49.388;11.350;2022-10-16T03:06:04;14.20;99.90
11140;DHT22;5624;49.388;11.350;2022-10-16T03:08:29;14.20;99.90
11140;DHT22;5624;49.388;11.350;2022-10-16T03:10:56;14.10;99.90
11140;DHT22;5624;49.388;11.350;2022-10-16T03:13:21;14.20;99.90
11140;DHT22;5624;49.388;11.350;2022-10-16T03:15:47;14.20;99.90
11140;DHT22;5624;49.388;11.350;2022-10-16T03:18:13;14.20;99.90
11140;DHT22;5624;49.388;11.350;2022-10-16T03:20:38;14.20;99.90
11140;DHT22;5624;49.388;11.350;2022-10-16T03:23:04;14.20;99.90
11140;DHT22;5624;49.388;11.350;2022-10-16T03:25:30;14.20;99.90
11140;DHT22;5624;49.388;11.350;2022-10-16T03:27:55;14.10;99.90
11140;DHT22;5624;49.388;11.350;2022-10-16T03:30:21;14.10;99.90
11140;DHT22;5624;49.388;11.350;2022-10-16T03:32:47;14.20;99.90
11140;DHT22;5624;49.388;11.350;2022-10-16T03:35:12;14.20;99.90
11140;DHT22;5624;49.388;11.350;2022-10-16T03:37:38;14.20;99.90
11140;DHT22;5624;49.388;11.350;2022-10-16T03:40:04;14.20;99.90
11140;DHT22;5624;49.388;11.350;2022-10-16T03:42:30;14.20;99.90
11140;DHT22;5624;49.388;11.350;2022-10-16T03:44:56;14.20;99.90
11140;DHT22;5624;49.388;11.350;2022-10-16T03:47:21;14.30;99.90
11140;DHT22;5624;49.388;11.350;2022-10-16T03:49:49;14.10;99.90
11140;DHT22;5624;49.388;11.350;2022-10-16T03:52:15;14.10;99.90
11140;DHT22;5624;49.388;11.350;2022-10-16T03:54:41;14.10;99.90
11140;DHT22;5624;49.388;11.350;2022-10-16T03:57:07;14.10;99.90
11140;DHT22;5624;49.388;11.350;2022-10-16T03:59:32;14.10;99.90
11140;DHT22;5624;49.388;11.350;2022-10-16T04:01:58;14.10;99.90
11140;DHT22;5624;49.388;11.350;2022-10-16T04:04:24;14.10;99.90
11140;DHT22;5624;49.388;11.350;2022-10-16T04:06:50;14.10;99.90
11140;DHT22;5624;49.388;11.350;2022-10-16T04:09:16;14.00;99.90
11140;DHT22;5624;49.388;11.350;2022-10-16T04:11:42;14.00;99.90
11140;DHT22;5624;49.388;11.350;2022-10-16T04:14:08;14.00;99.90
11140;DHT22;5624;49.388;11.350;2022-10-16T04:16:34;14.10;99.90
11140;DHT22;5624;49.388;11.350;2022-10-16T04:18:59;14.10;99.90
11140;DHT22;5624;49.388;11.350;2022-10-16T04:21:25;14.10;99.90
11140;DHT22;5624;49.388;11.350;2022-10-16T04:23:51;14.10;99.90
11140;DHT22;5624;49.388;11.350;2022-10-16T04:26:17;14.10;99.90
11140;DHT22;5624;49.388;11.350;2022-10-16T04:28:43;14.10;99.90
11140;DHT22;5624;49.388;11.350;2022-10-16T04:31:09;14.10;99.90
11140;DHT22;5624;49.388;11.350;2022-10-16T04:33:34;14.10;99.90
11140;DHT22;5624;49.388;11.350;2022-10-16T04:36:01;14.20;99.90
11140;DHT22;5624;49.388;11.350;2022-10-16T04:38:27;14.20;99.90
11140;DHT22;5624;49.388;11.350;2022-10-16T04:40:53;14.20;99.90
11140;DHT22;5624;49.388;11.350;2022-10-16T04:43:19;14.30;99.90
11140;DHT22;5624;49.388;11.350;2022-10-16T04:45:45;14.20;99.90
11140;DHT22;5624;49.388;11.350;2022-10-16T04:48:10;14.30;99.90
11140;DHT22;5624;49.388;11.350;2022-10-16T04:50:36;14.20;99.90
11140;DHT22;5624;49.388;11.350;2022-10-16T04:53:02;14.30;99.90
11140;DHT22;5624;49.388;11.350;2022-10-16T04:55:27;14.30;99.90
11140;DHT22;5624;49.388;11.350;2022-10-16T04:57:53;14.30;99.80
11140;DHT22;5624;49.388;11.350;2022-10-16T05:00:19;14.30;99.40
11140;DHT22;5624;49.388;11.350;2022-10-16T05:02:45;14.30;99.60
11140;DHT22;5624;49.388;11.350;2022-10-16T05:05:10;14.30;99.90
11140;DHT22;5624;49.388;11.350;2022-10-16T05:07:37;14.30;99.90
11140;DHT22;5624;49.388;11.350;2022-10-16T05:10:03;14.30;99.90
11140;DHT22;5624;49.388;11.350;2022-10-16T05:12:28;14.20;99.90
11140;DHT22;5624;49.388;11.350;2022-10-16T05:14:54;14.20;99.90
11140;DHT22;5624;49.388;11.350;2022-10-16T05:17:24;14.20;99.90
11140;DHT22;5624;49.388;11.350;2022-10-16T05:19:50;14.20;99.90
11140;DHT22;5624;49.388;11.350;2022-10-16T05:22:16;14.10;99.90
11140;DHT22;5624;49.388;11.350;2022-10-16T05:24:42;14.10;99.90
11140;DHT22;5624;49.388;11.350;2022-10-16T05:27:07;14.10;99.90
11140;DHT22;5624;49.388;11.350;2022-10-16T05:29:33;14.00;99.90
11140;DHT22;5624;49.388;11.350;2022-10-16T05:31:59;14.00;99.90
11140;DHT22;5624;49.388;11.350;2022-10-16T05:34:24;14.00;99.90
11140;DHT22;5624;49.388;11.350;2022-10-16T05:36:50;13.90;99.90
11140;DHT22;5624;49.388;11.350;2022-10-16T05:39:16;13.90;99.90
11140;DHT22;5624;49.388;11.350;2022-10-16T05:41:42;13.90;99.90
11140;DHT22;5624;49.388;11.350;2022-10-16T05:44:08;13.90;99.90
11140;DHT22;5624;49.388;11.350;2022-10-16T05:46:34;13.80;99.90
11140;DHT22;5624;49.388;11.350;2022-10-16T05:48:59;13.90;99.90
11140;DHT22;5624;49.388;11.350;2022-10-16T05:51:25;13.90;99.90
11140;DHT22;5624;49.388;11.350;2022-10-16T05:53:52;13.80;99.90
11140;DHT22;5624;49.388;11.350;2022-10-16T05:56:18;13.80;99.90
11140;DHT22;5624;49.388;11.350;2022-10-16T05:58:44;13.90;99.90
11140;DHT22;5624;49.388;11.350;2022-10-16T06:01:10;13.80;99.90
11140;DHT22;5624;49.388;11.350;2022-10-16T06:03:36;13.80;99.90
11140;DHT22;5624;49.388;11.350;2022-10-16T06:08:39;13.90;99.90
11140;DHT22;5624;49.388;11.350;2022-10-16T06:11:08;13.90;99.90
11140;DHT22;5624;49.388;11.350;2022-10-16T06:13:34;14.00;99.90
11140;DHT22;5624;49.388;11.350;2022-10-16T06:16:00;14.00;99.90
11140;DHT22;5624;49.388;11.350;2022-10-16T06:18:27;14.20;99.90
11140;DHT22;5624;49.388;11.350;2022-10-16T06:20:54;14.30;99.90
11140;DHT22;5624;49.388;11.350;2022-10-16T06:23:20;14.40;99.90
11140;DHT22;5624;49.388;11.350;2022-10-16T06:25:46;14.50;99.90
11140;DHT22;5624;49.388;11.350;2022-10-16T06:28:13;14.60;99.90
11140;DHT22;5624;49.388;11.350;2022-10-16T06:30:39;14.80;99.90
11140;DHT22;5624;49.388;11.350;2022-10-16T06:33:04;14.90;99.30
11140;DHT22;5624;49.388;11.350;2022-10-16T06:35:30;14.90;97.40
11140;DHT22;5624;49.388;11.350;2022-10-16T06:37:57;15.00;97.60
11140;DHT22;5624;49.388;11.350;2022-10-16T06:40:23;15.20;97.00
11140;DHT22;5624;49.388;11.350;2022-10-16T06:42:49;15.30;95.70
11140;DHT22;5624;49.388;11.350;2022-10-16T06:45:17;15.40;94.10
11140;DHT22;5624;49.388;11.350;2022-10-16T06:47:43;15.40;94.00
11140;DHT22;5624;49.388;11.350;2022-10-16T06:50:08;15.40;93.90
11140;DHT22;5624;49.388;11.350;2022-10-16T06:52:34;15.20;94.50
11140;DHT22;5624;49.388;11.350;2022-10-16T06:55:00;15.20;95.20
11140;DHT22;5624;49.388;11.350;2022-10-16T06:57:26;15.20;95.40
11140;DHT22;5624;49.388;11.350;2022-10-16T06:59:51;15.40;96.10
11140;DHT22;5624;49.388;11.350;2022-10-16T07:02:17;15.60;95.20
11140;DHT22;5624;49.388;11.350;2022-10-16T07:04:43;15.80;93.40
11140;DHT22;5624;49.388;11.350;2022-10-16T07:07:09;16.10;93.00
11140;DHT22;5624;49.388;11.350;2022-10-16T07:09:34;16.40;90.20
11140;DHT22;5624;49.388;11.350;2022-10-16T07:12:00;16.50;88.90
11140;DHT22;5624;49.388;11.350;2022-10-16T07:14:26;16.50;88.80
11140;DHT22;5624;49.388;11.350;2022-10-16T07:16:51;16.30;88.40
11140;DHT22;5624;49.388;11.350;2022-10-16T07:19:17;16.20;88.90
11140;DHT22;5624;49.388;11.350;2022-10-16T07:21:44;16.00;90.20
11140;DHT22;5624;49.388;11.350;2022-10-16T07:24:15;15.70;91.00
11140;DHT22;5624;49.388;11.350;2022-10-16T07:26:42;15.70;91.70
11140;DHT22;5624;49.388;11.350;2022-10-16T07:29:17;15.60;92.30
11140;DHT22;5624;49.388;11.350;2022-10-16T07:31:43;15.60;92.10
11140;DHT22;5624;49.388;11.350;2022-10-16T07:34:10;15.70;92.10
11140;DHT22;5624;49.388;11.350;2022-10-16T07:36:36;15.60;92.70
11140;DHT22;5624;49.388;11.350;2022-10-16T07:39:02;15.50;93.20
11140;DHT22;5624;49.388;11.350;2022-10-16T07:41:28;15.50;93.20
11140;DHT22;5624;49.388;11.350;2022-10-16T07:43:55;15.70;92.90
11140;DHT22;5624;49.388;11.350;2022-10-16T07:46:25;15.70;92.60
11140;DHT22;5624;49.388;11.350;2022-10-16T07:48:51;15.80;92.00
11140;DHT22;5624;49.388;11.350;2022-10-16T07:51:22;15.70;92.50
11140;DHT22;5624;49.388;11.350;2022-10-16T07:53:49;15.70;93.00
11140;DHT22;5624;49.388;11.350;2022-10-16T07:56:16;15.80;91.70
11140;DHT22;5624;49.388;11.350;2022-10-16T07:58:42;15.70;91.80
11140;DHT22;5624;49.388;11.350;2022-10-16T08:01:10;15.50;92.80
11140;DHT22;5624;49.388;11.350;2022-10-16T08:03:36;15.60;92.60
11140;DHT22;5624;49.388;11.350;2022-10-16T08:06:02;15.50;92.90
11140;DHT22;5624;49.388;11.350;2022-10-16T08:08:29;15.50;93.00
11140;DHT22;5624;49.388;11.350;2022-10-16T08:10:55;15.50;93.40
11140;DHT22;5624;49.388;11.350;2022-10-16T08:13:21;15.60;93.10
11140;DHT22;5624;49.388;11.350;2022-10-16T08:15:46;15.70;93.30
11140;DHT22;5624;49.388;11.350;2022-10-16T08:18:13;15.70;92.40
11140;DHT22;5624;49.388;11.350;2022-10-16T08:20:40;15.70;92.00
11140;DHT22;5624;49.388;11.350;2022-10-16T08:23:06;15.60;92.00
11140;DHT22;5624;49.388;11.350;2022-10-16T08:25:35;15.70;92.20
11140;DHT22;5624;49.388;11.350;2022-10-16T08:28:04;15.80;91.80
11140;DHT22;5624;49.388;11.350;2022-10-16T08:30:31;16.00;91.00
11140;DHT22;5624;49.388;11.350;2022-10-16T08:32:57;16.40;89.50
11140;DHT22;5624;49.388;11.350;2022-10-16T08:35:23;16.50;87.80
11140;DHT22;5624;49.388;11.350;2022-10-16T08:37:49;16.80;87.60
11140;DHT22;5624;49.388;11.350;2022-10-16T08:40:23;17.20;85.20
11140;DHT22;5624;49.388;11.350;2022-10-16T08:43:12;17.40;84.70
11140;DHT22;5624;49.388;11.350;2022-10-16T08:48:47;17.90;80.70
11140;DHT22;5624;49.388;11.350;2022-10-16T08:51:20;17.90;81.10
11140;DHT22;5624;49.388;11.350;2022-10-16T08:56:19;18.20;80.60
11140;DHT22;5624;49.388;11.350;2022-10-16T08:58:46;18.50;78.70
11140;DHT22;5624;49.388;11.350;2022-10-16T09:01:15;19.00;75.90
11140;DHT22;5624;49.388;11.350;2022-10-16T09:09:23;19.70;74.20
11140;DHT22;5624;49.388;11.350;2022-10-16T09:17:16;19.60;72.00
11140;DHT22;5624;49.388;11.350;2022-10-16T09:19:53;19.50;73.60
11140;DHT22;5624;49.388;11.350;2022-10-16T09:22:24;19.50;73.50
11140;DHT22;5624;49.388;11.350;2022-10-16T09:24:55;19.40;73.80
11140;DHT22;5624;49.388;11.350;2022-10-16T09:27:23;19.60;73.60
11140;DHT22;5624;49.388;11.350;2022-10-16T09:29:49;20.30;74.50
11140;DHT22;5624;49.388;11.350;2022-10-16T09:32:19;20.70;72.00
11140;DHT22;5624;49.388;11.350;2022-10-16T09:34:49;20.90;70.20
11140;DHT22;5624;49.388;11.350;2022-10-16T09:37:18;21.30;68.70
11140;DHT22;5624;49.388;11.350;2022-10-16T09:39:52;21.60;67.90
11140;DHT22;5624;49.388;11.350;2022-10-16T09:42:31;21.50;65.90
11140;DHT22;5624;49.388;11.350;2022-10-16T09:44:58;21.30;65.40
11140;DHT22;5624;49.388;11.350;2022-10-16T09:47:26;20.80;66.90
11140;DHT22;5624;49.388;11.350;2022-10-16T09:50:04;20.70;69.70
11140;DHT22;5624;49.388;11.350;2022-10-16T09:52:33;20.60;68.80
11140;DHT22;5624;49.388;11.350;2022-10-16T09:55:12;20.30;69.70
11140;DHT22;5624;49.388;11.350;2022-10-16T09:57:51;20.10;70.20
11140;DHT22;5624;49.388;11.350;2022-10-16T10:00:18;19.70;71.40
11140;DHT22;5624;49.388;11.350;2022-10-16T10:02:44;19.20;72.50
11140;DHT22;5624;49.388;11.350;2022-10-16T10:05:28;19.10;73.90
11140;DHT22;5624;49.388;11.350;2022-10-16T10:07:56;19.00;75.10
11140;DHT22;5624;49.388;11.350;2022-10-16T10:10:27;18.70;75.90
11140;DHT22;5624;49.388;11.350;2022-10-16T10:12:54;18.80;76.70
11140;DHT22;5624;49.388;11.350;2022-10-16T10:15:21;18.90;76.50
11140;DHT22;5624;49.388;11.350;2022-10-16T10:17:53;19.10;76.30
11140;DHT22;5624;49.388;11.350;2022-10-16T10:20:29;19.40;74.30
11140;DHT22;5624;49.388;11.350;2022-10-16T10:22:56;19.70;74.00
11140;DHT22;5624;49.388;11.350;2022-10-16T10:28:58;20.40;71.90
11140;DHT22;5624;49.388;11.350;2022-10-16T10:31:44;20.60;70.00
11140;DHT22;5624;49.388;11.350;2022-10-16T10:34:48;20.80;68.30
11140;DHT22;5624;49.388;11.350;2022-10-16T10:37:25;20.70;67.30
11140;DHT22;5624;49.388;11.350;2022-10-16T10:42:38;20.80;66.40
11140;DHT22;5624;49.388;11.350;2022-10-16T10:45:41;21.00;67.40
11140;DHT22;5624;49.388;11.350;2022-10-16T10:48:38;20.80;68.60
11140;DHT22;5624;49.388;11.350;2022-10-16T10:51:14;20.80;68.20
11140;DHT22;5624;49.388;11.350;2022-10-16T10:54:20;20.80;67.90
11140;DHT22;5624;49.388;11.350;2022-10-16T10:57:02;20.80;68.20
11140;DHT22;5624;49.388;11.350;2022-10-16T11:02:47;21.10;66.90
11140;DHT22;5624;49.388;11.350;2022-10-16T11:05:40;21.60;67.30
11140;DHT22;5624;49.388;11.350;2022-10-16T11:08:22;21.50;64.80
11140;DHT22;5624;49.388;11.350;2022-10-16T11:11:07;21.80;66.30
11140;DHT22;5624;49.388;11.350;2022-10-16T11:14:24;22.10;65.20
11140;DHT22;5624;49.388;11.350;2022-10-16T11:16:31;22.20;64.10
11140;DHT22;5624;49.388;11.350;2022-10-16T11:21:54;21.90;63.10
11140;DHT22;5624;49.388;11.350;2022-10-16T11:27:15;21.40;66.30
11140;DHT22;5624;49.388;11.350;2022-10-16T11:29:58;21.30;66.40
11140;DHT22;5624;49.388;11.350;2022-10-16T11:32:30;21.20;67.20
11140;DHT22;5624;49.388;11.350;2022-10-16T11:35:00;21.00;67.50
11140;DHT22;5624;49.388;11.350;2022-10-16T11:37:32;21.10;67.80
11140;DHT22;5624;49.388;11.350;2022-10-16T11:42:57;21.10;68.50
11140;DHT22;5624;49.388;11.350;2022-10-16T11:45:38;21.10;68.30
11140;DHT22;5624;49.388;11.350;2022-10-16T11:53:39;21.50;67.80
11140;DHT22;5624;49.388;11.350;2022-10-16T11:56:07;21.80;69.30
11140;DHT22;5624;49.388;11.350;2022-10-16T12:04:21;22.40;65.10
11140;DHT22;5624;49.388;11.350;2022-10-16T12:09:32;22.90;64.30
11140;DHT22;5624;49.388;11.350;2022-10-16T12:12:00;23.50;63.60
11140;DHT22;5624;49.388;11.350;2022-10-16T12:14:38;24.10;60.10
11140;DHT22;5624;49.388;11.350;2022-10-16T12:17:25;24.00;57.70
11140;DHT22;5624;49.388;11.350;2022-10-16T12:20:19;24.00;56.60
11140;DHT22;5624;49.388;11.350;2022-10-16T12:22:51;24.10;57.90
11140;DHT22;5624;49.388;11.350;2022-10-16T12:25:53;23.70;59.00
11140;DHT22;5624;49.388;11.350;2022-10-16T12:28:21;23.40;61.00
11140;DHT22;5624;49.388;11.350;2022-10-16T12:30:56;23.50;60.80
11140;DHT22;5624;49.388;11.350;2022-10-16T12:35:53;23.70;60.30
11140;DHT22;5624;49.388;11.350;2022-10-16T12:38:45;23.70;59.80
11140;DHT22;5624;49.388;11.350;2022-10-16T12:41:12;23.20;60.80
11140;DHT22;5624;49.388;11.350;2022-10-16T12:43:44;22.90;61.70
11140;DHT22;5624;49.388;11.350;2022-10-16T12:48:38;22.10;64.40
11140;DHT22;5624;49.388;11.350;2022-10-16T12:56:45;21.40;66.00
11140;DHT22;5624;49.388;11.350;2022-10-16T13:05:31;21.20;65.80
11140;DHT22;5624;49.388;11.350;2022-10-16T13:13:23;21.90;64.30
11140;DHT22;5624;49.388;11.350;2022-10-16T13:18:42;22.00;63.30
11140;DHT22;5624;49.388;11.350;2022-10-16T13:27:07;22.70;61.60
11140;DHT22;5624;49.388;11.350;2022-10-16T13:29:36;22.80;59.80
11140;DHT22;5624;49.388;11.350;2022-10-16T13:32:08;22.80;58.80
11140;DHT22;5624;49.388;11.350;2022-10-16T13:34:44;22.60;60.00
11140;DHT22;5624;49.388;11.350;2022-10-16T13:37:19;22.50;61.20
11140;DHT22;5624;49.388;11.350;2022-10-16T13:39:45;22.80;60.20
11140;DHT22;5624;49.388;11.350;2022-10-16T13:42:16;22.70;59.50
11140;DHT22;5624;49.388;11.350;2022-10-16T13:44:49;22.30;61.30
11140;DHT22;5624;49.388;11.350;2022-10-16T13:47:27;21.90;62.30
11140;DHT22;5624;49.388;11.350;2022-10-16T13:50:11;21.50;63.40
11140;DHT22;5624;49.388;11.350;2022-10-16T13:52:37;21.20;62.80
11140;DHT22;5624;49.388;11.350;2022-10-16T13:55:15;21.30;63.80
11140;DHT22;5624;49.388;11.350;2022-10-16T13:57:41;21.30;64.00
11140;DHT22;5624;49.388;11.350;2022-10-16T14:00:25;21.30;64.50
11140;DHT22;5624;49.388;11.350;2022-10-16T14:03:14;21.40;64.30
11140;DHT22;5624;49.388;11.350;2022-10-16T14:08:17;21.00;64.40
11140;DHT22;5624;49.388;11.350;2022-10-16T14:10:46;20.80;65.60
11140;DHT22;5624;49.388;11.350;2022-10-16T14:13:19;20.60;65.60
11140;DHT22;5624;49.388;11.350;2022-10-16T14:15:49;20.40;67.20
11140;DHT22;5624;49.388;11.350;2022-10-16T14:18:21;20.40;67.40
11140;DHT22;5624;49.388;11.350;2022-10-16T14:20:48;20.30;68.10
11140;DHT22;5624;49.388;11.350;2022-10-16T14:23:29;20.20;68.00
11140;DHT22;5624;49.388;11.350;2022-10-16T14:28:39;20.20;67.10
11140;DHT22;5624;49.388;11.350;2022-10-16T14:31:32;20.10;68.60
11140;DHT22;5624;49.388;11.350;2022-10-16T14:33:59;20.10;69.10
11140;DHT22;5624;49.388;11.350;2022-10-16T14:36:26;20.00;69.70
11140;DHT22;5624;49.388;11.350;2022-10-16T14:39:06;20.00;69.80
11140;DHT22;5624;49.388;11.350;2022-10-16T14:41:45;19.80;69.30
11140;DHT22;5624;49.388;11.350;2022-10-16T14:44:12;19.70;70.00
11140;DHT22;5624;49.388;11.350;2022-10-16T14:46:40;19.70;70.60
11140;DHT22;5624;49.388;11.350;2022-10-16T14:51:39;19.60;71.60
11140;DHT22;5624;49.388;11.350;2022-10-16T14:54:11;19.60;71.00
11140;DHT22;5624;49.388;11.350;2022-10-16T14:56:56;19.60;70.80
11140;DHT22;5624;49.388;11.350;2022-10-16T14:59:29;19.70;70.10
11140;DHT22;5624;49.388;11.350;2022-10-16T15:01:55;19.70;69.70
11140;DHT22;5624;49.388;11.350;2022-10-16T15:04:21;19.60;69.60
11140;DHT22;5624;49.388;11.350;2022-10-16T15:06:47;19.50;69.60
11140;DHT22;5624;49.388;11.350;2022-10-16T15:09:13;19.30;69.70
11140;DHT22;5624;49.388;11.350;2022-10-16T15:11:39;19.20;70.40
11140;DHT22;5624;49.388;11.350;2022-10-16T15:14:05;19.20;70.00
11140;DHT22;5624;49.388;11.350;2022-10-16T15:16:31;19.20;70.70
11140;DHT22;5624;49.388;11.350;2022-10-16T15:18:57;19.10;71.30
11140;DHT22;5624;49.388;11.350;2022-10-16T15:21:31;18.90;72.50
11140;DHT22;5624;49.388;11.350;2022-10-16T15:23:58;18.80;73.00
11140;DHT22;5624;49.388;11.350;2022-10-16T15:26:26;18.70;73.20
11140;DHT22;5624;49.388;11.350;2022-10-16T15:28:52;18.70;73.40
11140;DHT22;5624;49.388;11.350;2022-10-16T15:31:17;18.70;73.20
11140;DHT22;5624;49.388;11.350;2022-10-16T15:33:43;18.80;73.40
11140;DHT22;5624;49.388;11.350;2022-10-16T15:36:13;18.70;74.20
11140;DHT22;5624;49.388;11.350;2022-10-16T15:38:39;18.60;74.30
11140;DHT22;5624;49.388;11.350;2022-10-16T15:41:04;18.60;75.00
11140;DHT22;5624;49.388;11.350;2022-10-16T15:43:30;18.60;75.40
11140;DHT22;5624;49.388;11.350;2022-10-16T15:46:06;18.70;75.00
11140;DHT22;5624;49.388;11.350;2022-10-16T15:48:34;18.60;75.60
11140;DHT22;5624;49.388;11.350;2022-10-16T15:51:00;18.50;75.30
11140;DHT22;5624;49.388;11.350;2022-10-16T15:53:29;18.50;75.50
11140;DHT22;5624;49.388;11.350;2022-10-16T15:55:55;18.40;75.80
11140;DHT22;5624;49.388;11.350;2022-10-16T15:58:21;18.40;76.60
11140;DHT22;5624;49.388;11.350;2022-10-16T16:00:57;18.30;77.80
11140;DHT22;5624;49.388;11.350;2022-10-16T16:03:26;18.30;77.80
11140;DHT22;5624;49.388;11.350;2022-10-16T16:05:52;18.20;77.50
11140;DHT22;5624;49.388;11.350;2022-10-16T16:08:18;18.20;77.90
11140;DHT22;5624;49.388;11.350;2022-10-16T16:10:44;18.20;78.20
11140;DHT22;5624;49.388;11.350;2022-10-16T16:13:10;18.20;78.30
11140;DHT22;5624;49.388;11.350;2022-10-16T16:15:39;18.20;78.40
11140;DHT22;5624;49.388;11.350;2022-10-16T16:18:05;18.10;78.60
11140;DHT22;5624;49.388;11.350;2022-10-16T16:20:31;18.00;79.10
11140;DHT22;5624;49.388;11.350;2022-10-16T16:22:57;17.90;79.80
11140;DHT22;5624;49.388;11.350;2022-10-16T16:25:23;17.80;80.00
11140;DHT22;5624;49.388;11.350;2022-10-16T16:27:49;17.90;80.10
11140;DHT22;5624;49.388;11.350;2022-10-16T16:30:15;17.70;81.10
11140;DHT22;5624;49.388;11.350;2022-10-16T16:32:42;17.80;81.80
11140;DHT22;5624;49.388;11.350;2022-10-16T16:35:09;17.90;82.30
11140;DHT22;5624;49.388;11.350;2022-10-16T16:37:35;17.80;82.70
11140;DHT22;5624;49.388;11.350;2022-10-16T16:40:00;17.70;83.70
11140;DHT22;5624;49.388;11.350;2022-10-16T16:42:27;17.60;83.50
11140;DHT22;5624;49.388;11.350;2022-10-16T16:44:52;17.60;83.20
11140;DHT22;5624;49.388;11.350;2022-10-16T16:47:18;17.60;83.20
11140;DHT22;5624;49.388;11.350;2022-10-16T16:49:44;17.60;83.10
11140;DHT22;5624;49.388;11.350;2022-10-16T16:52:12;17.60;83.00
11140;DHT22;5624;49.388;11.350;2022-10-16T16:54:38;17.50;83.60
11140;DHT22;5624;49.388;11.350;2022-10-16T16:57:04;17.40;84.10
11140;DHT22;5624;49.388;11.350;2022-10-16T16:59:29;17.40;84.20
11140;DHT22;5624;49.388;11.350;2022-10-16T17:02:01;17.30;84.70
11140;DHT22;5624;49.388;11.350;2022-10-16T17:04:27;17.20;85.20
11140;DHT22;5624;49.388;11.350;2022-10-16T17:06:53;17.20;85.90
11140;DHT22;5624;49.388;11.350;2022-10-16T17:09:20;17.20;85.90
11140;DHT22;5624;49.388;11.350;2022-10-16T17:11:46;17.20;85.70
11140;DHT22;5624;49.388;11.350;2022-10-16T17:14:14;17.20;85.70
11140;DHT22;5624;49.388;11.350;2022-10-16T17:16:41;17.20;85.70
11140;DHT22;5624;49.388;11.350;2022-10-16T17:19:14;17.10;85.60
11140;DHT22;5624;49.388;11.350;2022-10-16T17:21:41;17.10;85.70
11140;DHT22;5624;49.388;11.350;2022-10-16T17:24:07;17.10;85.60
11140;DHT22;5624;49.388;11.350;2022-10-16T17:26:34;17.00;86.20
11140;DHT22;5624;49.388;11.350;2022-10-16T17:29:04;16.90;86.40
11140;DHT22;5624;49.388;11.350;2022-10-16T17:31:32;16.80;87.00